sensor_id;sensor_type;location;lat;lon;timestamp;pressure;altitude;pressure_sealevel;temperature;humidity
30598;BME280;17365;48.878;8.334;2023-02-18T00:00:50;101065.34;;;12.69;84.61
30598;BME280;17365;48.878;8.334;2023-02-18T00:03:16;101069.69;;;12.70;84.92
30598;BME280;17365;48.878;8.334;2023-02-18T00:05:41;101062.75;;;12.69;84.53
30598;BME280;17365;48.878;8.334;2023-02-18T00:08:06;101072.31;;;12.75;84.55
30598;BME280;17365;48.878;8.334;2023-02-18T00:10:31;101079.25;;;12.73;83.95
30598;BME280;17365;48.878;8.334;2023-02-18T00:12:57;101079.19;;;12.67;84.48
30598;BME280;17365;48.878;8.334;2023-02-18T00:15:22;101085.34;;;12.75;84.11
30598;BME280;17365;48.878;8.334;2023-02-18T00:17:47;101074.03;;;12.71;84.08
30598;BME280;17365;48.878;8.334;2023-02-18T00:20:13;101077.53;;;12.75;84.49
30598;BME280;17365;48.878;8.334;2023-02-18T00:22:38;101068.81;;;12.70;84.07
30598;BME280;17365;48.878;8.334;2023-02-18T00:25:03;101065.31;;;12.68;84.11
30598;BME280;17365;48.878;8.334;2023-02-18T00:27:29;101065.38;;;12.74;84.39
30598;BME280;17365;48.878;8.334;2023-02-18T00:29:54;101055.84;;;12.77;84.26
30598;BME280;17365;48.878;8.334;2023-02-18T00:32:19;101058.44;;;12.76;83.32
30598;BME280;17365;48.878;8.334;2023-02-18T00:34:45;101062.78;;;12.78;83.24
30598;BME280;17365;48.878;8.334;2023-02-18T00:37:10;101056.72;;;12.78;83.55
30598;BME280;17365;48.878;8.334;2023-02-18T00:39:35;101057.69;;;12.91;82.80
30598;BME280;17365;48.878;8.334;2023-02-18T00:42:01;101048.97;;;12.89;82.90
30598;BME280;17365;48.878;8.334;2023-02-18T00:44:26;101046.28;;;12.72;83.25
30598;BME280;17365;48.878;8.334;2023-02-18T00:46:51;101051.47;;;12.73;83.00
30598;BME280;17365;48.878;8.334;2023-02-18T00:49:17;101044.56;;;12.77;82.66
30598;BME280;17365;48.878;8.334;2023-02-18T00:51:42;101045.50;;;12.87;82.42
30598;BME280;17365;48.878;8.334;2023-02-18T00:54:08;101042.00;;;12.81;82.74
30598;BME280;17365;48.878;8.334;2023-02-18T00:56:33;101051.59;;;12.87;81.90
30598;BME280;17365;48.878;8.334;2023-02-18T00:58:59;101056.78;;;12.86;81.93
30598;BME280;17365;48.878;8.334;2023-02-18T01:01:24;101045.53;;;12.90;81.65
30598;BME280;17365;48.878;8.334;2023-02-18T01:03:50;101049.91;;;12.97;81.24
30598;BME280;17365;48.878;8.334;2023-02-18T01:06:15;101049.91;;;12.95;81.37
30598;BME280;17365;48.878;8.334;2023-02-18T01:08:41;101050.72;;;12.90;81.97
30598;BME280;17365;48.878;8.334;2023-02-18T01:11:07;101043.81;;;12.92;81.70
30598;BME280;17365;48.878;8.334;2023-02-18T01:13:33;101043.75;;;12.82;81.34
30598;BME280;17365;48.878;8.334;2023-02-18T01:15:58;101037.66;;;12.80;81.75
30598;BME280;17365;48.878;8.334;2023-02-18T01:18:25;101048.16;;;12.91;81.29
30598;BME280;17365;48.878;8.334;2023-02-18T01:20:50;101037.66;;;12.80;81.59
30598;BME280;17365;48.878;8.334;2023-02-18T01:23:16;101047.22;;;12.85;81.95
30598;BME280;17365;48.878;8.334;2023-02-18T01:25:42;101040.22;;;12.77;81.79
30598;BME280;17365;48.878;8.334;2023-02-18T01:28:09;101042.91;;;12.90;81.52
30598;BME280;17365;48.878;8.334;2023-02-18T01:30:35;101041.16;;;12.87;81.42
30598;BME280;17365;48.878;8.334;2023-02-18T01:33:00;101041.16;;;12.87;81.49
30598;BME280;17365;48.878;8.334;2023-02-18T01:35:26;101041.16;;;12.86;81.15
30598;BME280;17365;48.878;8.334;2023-02-18T01:37:51;101039.41;;;12.81;80.99
30598;BME280;17365;48.878;8.334;2023-02-18T01:40:20;101036.88;;;12.94;80.95
30598;BME280;17365;48.878;8.334;2023-02-18T01:42:47;101024.66;;;12.87;81.02
30598;BME280;17365;48.878;8.334;2023-02-18T01:50:34;101018.53;;;12.78;81.49
30598;BME280;17365;48.878;8.334;2023-02-18T01:53:01;101013.38;;;12.81;82.13
30598;BME280;17365;48.878;8.334;2023-02-18T01:55:27;101021.19;;;12.83;82.13
30598;BME280;17365;48.878;8.334;2023-02-18T01:57:52;101014.25;;;12.87;82.20
30598;BME280;17365;48.878;8.334;2023-02-18T02:00:19;101020.91;;;12.46;85.14
30598;BME280;17365;48.878;8.334;2023-02-18T02:02:49;101020.19;;;12.67;84.79
30598;BME280;17365;48.878;8.334;2023-02-18T02:05:16;101026.03;;;12.42;85.96
30598;BME280;17365;48.878;8.334;2023-02-18T02:07:42;101023.50;;;12.46;86.05
30598;BME280;17365;48.878;8.334;2023-02-18T02:10:10;101019.09;;;12.39;86.45
30598;BME280;17365;48.878;8.334;2023-02-18T02:20:48;101012.34;;;12.61;84.39
30598;BME280;17365;48.878;8.334;2023-02-18T02:29:40;101012.34;;;12.60;84.64
30598;BME280;17365;48.878;8.334;2023-02-18T02:35:01;101018.34;;;12.52;84.54
30598;BME280;17365;48.878;8.334;2023-02-18T02:37:34;101010.59;;;12.57;84.32
30598;BME280;17365;48.878;8.334;2023-02-18T02:48:14;101016.47;;;12.35;86.01
30598;BME280;17365;48.878;8.334;2023-02-18T02:50:53;101003.47;;;12.38;86.32
30598;BME280;17365;48.878;8.334;2023-02-18T02:53:26;101006.97;;;12.44;85.88
30598;BME280;17365;48.878;8.334;2023-02-18T02:55:52;100995.69;;;12.41;85.60
30598;BME280;17365;48.878;8.334;2023-02-18T02:58:20;100985.44;;;12.58;84.94
30598;BME280;17365;48.878;8.334;2023-02-18T03:09:08;100970.50;;;12.37;87.30
30598;BME280;17365;48.878;8.334;2023-02-18T03:12:03;100969.63;;;12.35;87.81
30598;BME280;17365;48.878;8.334;2023-02-18T03:14:29;100969.56;;;12.30;88.24
30598;BME280;17365;48.878;8.334;2023-02-18T03:17:21;100963.47;;;12.23;88.93
30598;BME280;17365;48.878;8.334;2023-02-18T03:19:57;100959.13;;;12.24;88.82
30598;BME280;17365;48.878;8.334;2023-02-18T03:22:36;100949.53;;;12.20;88.98
30598;BME280;17365;48.878;8.334;2023-02-18T03:25:04;100950.56;;;12.37;88.21
30598;BME280;17365;48.878;8.334;2023-02-18T03:27:50;100945.31;;;12.34;87.60
30598;BME280;17365;48.878;8.334;2023-02-18T03:30:23;100939.31;;;12.40;86.60
30598;BME280;17365;48.878;8.334;2023-02-18T03:32:52;100943.63;;;12.39;86.53
30598;BME280;17365;48.878;8.334;2023-02-18T03:35:21;100935.84;;;12.44;85.96
30598;BME280;17365;48.878;8.334;2023-02-18T03:37:51;100940.19;;;12.43;85.51
30598;BME280;17365;48.878;8.334;2023-02-18T03:40:19;100941.13;;;12.50;84.88
30598;BME280;17365;48.878;8.334;2023-02-18T03:42:44;100932.44;;;12.51;84.52
30598;BME280;17365;48.878;8.334;2023-02-18T03:45:10;100927.22;;;12.48;84.19
30598;BME280;17365;48.878;8.334;2023-02-18T03:47:35;100941.97;;;12.50;83.58
30598;BME280;17365;48.878;8.334;2023-02-18T03:50:00;100927.22;;;12.46;83.46
30598;BME280;17365;48.878;8.334;2023-02-18T03:52:26;100921.16;;;12.52;83.92
30598;BME280;17365;48.878;8.334;2023-02-18T03:54:51;100927.31;;;12.59;83.37
30598;BME280;17365;48.878;8.334;2023-02-18T03:57:16;100925.50;;;12.50;84.01
30598;BME280;17365;48.878;8.334;2023-02-18T03:59:41;100926.28;;;12.40;84.41
30598;BME280;17365;48.878;8.334;2023-02-18T04:02:07;100928.03;;;12.41;84.96
30598;BME280;17365;48.878;8.334;2023-02-18T04:04:32;100934.16;;;12.46;84.87
30598;BME280;17365;48.878;8.334;2023-02-18T04:06:57;100925.41;;;12.38;85.83
30598;BME280;17365;48.878;8.334;2023-02-18T04:09:23;100931.50;;;12.41;85.43
30598;BME280;17365;48.878;8.334;2023-02-18T04:11:48;100927.06;;;12.30;85.89
30598;BME280;17365;48.878;8.334;2023-02-18T04:14:13;100916.78;;;12.45;84.69
30598;BME280;17365;48.878;8.334;2023-02-18T04:16:39;100921.97;;;12.40;85.25
30598;BME280;17365;48.878;8.334;2023-02-18T04:19:05;100926.38;;;12.50;84.48
30598;BME280;17365;48.878;8.334;2023-02-18T04:21:31;100912.47;;;12.48;84.55
30598;BME280;17365;48.878;8.334;2023-02-18T04:23:56;100913.34;;;12.50;84.75
30598;BME280;17365;48.878;8.334;2023-02-18T04:26:22;100913.34;;;12.47;85.13
30598;BME280;17365;48.878;8.334;2023-02-18T04:28:47;100928.13;;;12.54;84.36
30598;BME280;17365;48.878;8.334;2023-02-18T04:31:12;100925.44;;;12.41;85.15
30598;BME280;17365;48.878;8.334;2023-02-18T04:33:38;100917.72;;;12.54;84.90
30598;BME280;17365;48.878;8.334;2023-02-18T04:36:03;100918.47;;;12.40;85.99
30598;BME280;17365;48.878;8.334;2023-02-18T04:38:29;100932.31;;;12.34;86.65
30598;BME280;17365;48.878;8.334;2023-02-18T04:40:54;100930.66;;;12.44;86.47
30598;BME280;17365;48.878;8.334;2023-02-18T04:43:19;100924.63;;;12.46;86.73
30598;BME280;17365;48.878;8.334;2023-02-18T04:45:44;100920.06;;;12.21;88.35
30598;BME280;17365;48.878;8.334;2023-02-18T04:48:10;100927.16;;;12.37;87.95
30598;BME280;17365;48.878;8.334;2023-02-18T04:50:35;100911.44;;;12.25;88.13
30598;BME280;17365;48.878;8.334;2023-02-18T04:53:00;100906.25;;;12.25;88.01
30598;BME280;17365;48.878;8.334;2023-02-18T04:55:25;100907.13;;;12.27;87.68
30598;BME280;17365;48.878;8.334;2023-02-18T04:57:51;100903.75;;;12.40;87.31
30598;BME280;17365;48.878;8.334;2023-02-18T05:00:18;100892.38;;;12.28;87.45
30598;BME280;17365;48.878;8.334;2023-02-18T05:02:44;100897.59;;;12.34;86.93
30598;BME280;17365;48.878;8.334;2023-02-18T05:05:11;100914.94;;;12.29;86.91
30598;BME280;17365;48.878;8.334;2023-02-18T05:07:37;100893.41;;;12.51;85.78
30598;BME280;17365;48.878;8.334;2023-02-18T05:10:03;100894.19;;;12.36;86.19
30598;BME280;17365;48.878;8.334;2023-02-18T05:12:28;100895.94;;;12.45;85.67
30598;BME280;17365;48.878;8.334;2023-02-18T05:14:53;100903.78;;;12.46;85.84
30598;BME280;17365;48.878;8.334;2023-02-18T05:17:18;100898.59;;;12.49;85.45
30598;BME280;17365;48.878;8.334;2023-02-18T05:19:44;100898.53;;;12.37;86.48
30598;BME280;17365;48.878;8.334;2023-02-18T05:22:09;100901.16;;;12.43;86.24
30598;BME280;17365;48.878;8.334;2023-02-18T05:24:35;100895.09;;;12.44;86.19
30598;BME280;17365;48.878;8.334;2023-02-18T05:27:00;100888.91;;;12.26;86.65
30598;BME280;17365;48.878;8.334;2023-02-18T05:29:25;100882.03;;;12.37;86.14
30598;BME280;17365;48.878;8.334;2023-02-18T05:31:50;100884.66;;;12.41;86.21
30598;BME280;17365;48.878;8.334;2023-02-18T05:34:16;100872.47;;;12.34;86.80
30598;BME280;17365;48.878;8.334;2023-02-18T05:36:41;100873.31;;;12.32;86.36
30598;BME280;17365;48.878;8.334;2023-02-18T05:39:06;100879.47;;;12.41;85.94
30598;BME280;17365;48.878;8.334;2023-02-18T05:41:32;100877.72;;;12.39;85.92
30598;BME280;17365;48.878;8.334;2023-02-18T05:43:57;100879.34;;;12.24;86.06
30598;BME280;17365;48.878;8.334;2023-02-18T05:46:41;100869.06;;;12.41;85.40
30598;BME280;17365;48.878;8.334;2023-02-18T05:49:06;100869.09;;;12.49;84.16
30598;BME280;17365;48.878;8.334;2023-02-18T05:51:32;100868.22;;;12.47;84.09
30598;BME280;17365;48.878;8.334;2023-02-18T05:53:57;100868.22;;;12.47;83.61
30598;BME280;17365;48.878;8.334;2023-02-18T05:56:22;100877.81;;;12.56;83.17
30598;BME280;17365;48.878;8.334;2023-02-18T05:58:48;100877.84;;;12.59;83.11
30598;BME280;17365;48.878;8.334;2023-02-18T06:01:13;100893.47;;;12.60;83.10
30598;BME280;17365;48.878;8.334;2023-02-18T06:03:38;100885.59;;;12.54;82.85
30598;BME280;17365;48.878;8.334;2023-02-18T06:06:04;100883.03;;;12.57;83.26
30598;BME280;17365;48.878;8.334;2023-02-18T06:08:29;100889.94;;;12.55;83.51
30598;BME280;17365;48.878;8.334;2023-02-18T06:10:55;100879.53;;;12.50;83.30
30598;BME280;17365;48.878;8.334;2023-02-18T06:13:20;100876.94;;;12.55;83.50
30598;BME280;17365;48.878;8.334;2023-02-18T06:15:45;100881.25;;;12.47;83.45
30598;BME280;17365;48.878;8.334;2023-02-18T06:18:10;100871.72;;;12.49;82.96
30598;BME280;17365;48.878;8.334;2023-02-18T06:20:38;100881.28;;;12.56;82.41
30598;BME280;17365;48.878;8.334;2023-02-18T06:23:04;100889.06;;;12.53;82.34
30598;BME280;17365;48.878;8.334;2023-02-18T06:25:29;100876.94;;;12.52;82.71
30598;BME280;17365;48.878;8.334;2023-02-18T06:27:54;100884.75;;;12.53;82.47
30598;BME280;17365;48.878;8.334;2023-02-18T06:30:20;100886.47;;;12.56;82.17
30598;BME280;17365;48.878;8.334;2023-02-18T06:32:45;100890.81;;;12.54;82.10
30598;BME280;17365;48.878;8.334;2023-02-18T06:35:11;100888.25;;;12.59;82.02
30598;BME280;17365;48.878;8.334;2023-02-18T06:37:36;100882.19;;;12.63;81.86
30598;BME280;17365;48.878;8.334;2023-02-18T06:40:01;100879.53;;;12.57;81.62
30598;BME280;17365;48.878;8.334;2023-02-18T06:42:27;100877.84;;;12.63;81.49
30598;BME280;17365;48.878;8.334;2023-02-18T06:44:52;100882.19;;;12.61;81.07
30598;BME280;17365;48.878;8.334;2023-02-18T06:47:17;100887.34;;;12.57;80.85
30598;BME280;17365;48.878;8.334;2023-02-18T06:49:42;100886.53;;;12.67;80.08
30598;BME280;17365;48.878;8.334;2023-02-18T06:52:08;100896.16;;;12.77;80.28
30598;BME280;17365;48.878;8.334;2023-02-18T06:54:33;100884.84;;;12.69;79.54
30598;BME280;17365;48.878;8.334;2023-02-18T06:56:58;100890.94;;;12.71;79.24
30598;BME280;17365;48.878;8.334;2023-02-18T06:59:24;100887.47;;;12.73;79.42
30598;BME280;17365;48.878;8.334;2023-02-18T07:01:49;100895.28;;;12.73;79.00
30598;BME280;17365;48.878;8.334;2023-02-18T07:04:14;100890.09;;;12.79;78.78
30598;BME280;17365;48.878;8.334;2023-02-18T07:06:40;100883.16;;;12.80;78.47
30598;BME280;17365;48.878;8.334;2023-02-18T07:09:05;100882.31;;;12.86;78.75
30598;BME280;17365;48.878;8.334;2023-02-18T07:11:30;100877.97;;;12.85;78.50
30598;BME280;17365;48.878;8.334;2023-02-18T07:13:56;100879.66;;;12.79;78.70
30598;BME280;17365;48.878;8.334;2023-02-18T07:16:21;100867.50;;;12.78;78.34
30598;BME280;17365;48.878;8.334;2023-02-18T07:18:46;100870.16;;;12.85;78.71
30598;BME280;17365;48.878;8.334;2023-02-18T07:21:12;100878.84;;;12.80;78.66
30598;BME280;17365;48.878;8.334;2023-02-18T07:23:37;100872.78;;;12.89;78.77
30598;BME280;17365;48.878;8.334;2023-02-18T07:26:07;100871.91;;;12.86;77.93
30598;BME280;17365;48.878;8.334;2023-02-18T07:28:33;100867.56;;;12.89;78.20
30598;BME280;17365;48.878;8.334;2023-02-18T07:30:58;100866.69;;;12.86;78.82
30598;BME280;17365;48.878;8.334;2023-02-18T07:33:24;100866.69;;;12.87;78.40
30598;BME280;17365;48.878;8.334;2023-02-18T07:35:54;100867.59;;;12.92;78.10
30598;BME280;17365;48.878;8.334;2023-02-18T07:38:20;100856.31;;;12.98;77.88
30598;BME280;17365;48.878;8.334;2023-02-18T07:40:45;100864.19;;;13.02;77.48
30598;BME280;17365;48.878;8.334;2023-02-18T07:43:10;100863.28;;;12.96;77.55
30598;BME280;17365;48.878;8.334;2023-02-18T07:45:37;100858.06;;;12.99;77.50
30598;BME280;17365;48.878;8.334;2023-02-18T07:48:03;100865.06;;;13.12;77.18
30598;BME280;17365;48.878;8.334;2023-02-18T07:50:28;100856.38;;;13.13;77.03
30598;BME280;17365;48.878;8.334;2023-02-18T07:52:59;100868.47;;;13.02;76.61
30598;BME280;17365;48.878;8.334;2023-02-18T07:55:25;100867.66;;;13.10;76.42
30598;BME280;17365;48.878;8.334;2023-02-18T07:58:10;100879.81;;;13.08;76.53
30598;BME280;17365;48.878;8.334;2023-02-18T08:00:36;100864.19;;;13.05;77.00
30598;BME280;17365;48.878;8.334;2023-02-18T08:03:01;100863.34;;;13.17;76.75
30598;BME280;17365;48.878;8.334;2023-02-18T08:05:26;100864.19;;;13.11;76.94
30598;BME280;17365;48.878;8.334;2023-02-18T08:07:51;100861.56;;;13.13;77.11
30598;BME280;17365;48.878;8.334;2023-02-18T08:10:17;100856.44;;;13.22;76.97
30598;BME280;17365;48.878;8.334;2023-02-18T08:12:42;100865.91;;;13.05;76.95
30598;BME280;17365;48.878;8.334;2023-02-18T08:15:08;100871.16;;;13.14;77.09
30598;BME280;17365;48.878;8.334;2023-02-18T08:17:33;100865.06;;;13.12;76.67
30598;BME280;17365;48.878;8.334;2023-02-18T08:19:58;100868.59;;;13.25;76.53
30598;BME280;17365;48.878;8.334;2023-02-18T08:22:24;100861.63;;;13.18;76.91
30598;BME280;17365;48.878;8.334;2023-02-18T08:24:49;100866.81;;;13.18;76.79
30598;BME280;17365;48.878;8.334;2023-02-18T08:27:14;100851.22;;;13.19;76.92
30598;BME280;17365;48.878;8.334;2023-02-18T08:29:40;100859.00;;;13.16;76.94
30598;BME280;17365;48.878;8.334;2023-02-18T08:32:05;100853.84;;;13.19;77.19
30598;BME280;17365;48.878;8.334;2023-02-18T08:34:30;100854.63;;;13.09;78.17
30598;BME280;17365;48.878;8.334;2023-02-18T08:36:55;100859.94;;;13.26;77.72
30598;BME280;17365;48.878;8.334;2023-02-18T08:39:21;100859.03;;;13.19;77.94
30598;BME280;17365;48.878;8.334;2023-02-18T08:41:46;100858.97;;;13.10;78.38
30598;BME280;17365;48.878;8.334;2023-02-18T08:44:11;100857.31;;;13.23;77.87
30598;BME280;17365;48.878;8.334;2023-02-18T08:46:37;100854.69;;;13.20;78.16
30598;BME280;17365;48.878;8.334;2023-02-18T08:49:03;100851.25;;;13.33;78.19
30598;BME280;17365;48.878;8.334;2023-02-18T08:51:29;100847.78;;;13.32;78.29
30598;BME280;17365;48.878;8.334;2023-02-18T08:53:55;100842.56;;;13.32;78.23
30598;BME280;17365;48.878;8.334;2023-02-18T08:56:20;100846.00;;;13.24;78.99
30598;BME280;17365;48.878;8.334;2023-02-18T08:58:46;100850.31;;;13.14;79.91
30598;BME280;17365;48.878;8.334;2023-02-18T09:01:12;100851.22;;;13.22;79.36
30598;BME280;17365;48.878;8.334;2023-02-18T09:03:38;100849.50;;;13.20;79.45
30598;BME280;17365;48.878;8.334;2023-02-18T09:06:04;100839.09;;;13.33;78.89
30598;BME280;17365;48.878;8.334;2023-02-18T09:08:30;100853.84;;;13.21;79.59
30598;BME280;17365;48.878;8.334;2023-02-18T09:10:57;100857.31;;;13.23;79.65
30598;BME280;17365;48.878;8.334;2023-02-18T09:13:25;100844.25;;;13.15;79.21
30598;BME280;17365;48.878;8.334;2023-02-18T09:16:15;100841.63;;;13.17;80.04
30598;BME280;17365;48.878;8.334;2023-02-18T09:18:44;100842.47;;;13.12;79.80
30598;BME280;17365;48.878;8.334;2023-02-18T09:21:11;100832.13;;;13.25;79.70
30598;BME280;17365;48.878;8.334;2023-02-18T09:23:37;100844.34;;;13.36;78.87
30598;BME280;17365;48.878;8.334;2023-02-18T09:26:08;100839.09;;;13.32;78.34
30598;BME280;17365;48.878;8.334;2023-02-18T09:28:34;100839.97;;;13.31;78.67
30598;BME280;17365;48.878;8.334;2023-02-18T09:31:08;100834.75;;;13.32;77.32
30598;BME280;17365;48.878;8.334;2023-02-18T09:33:37;100833.00;;;13.30;78.11
30598;BME280;17365;48.878;8.334;2023-02-18T09:36:03;100844.34;;;13.36;77.89
30598;BME280;17365;48.878;8.334;2023-02-18T09:38:28;100840.88;;;13.51;77.44
30598;BME280;17365;48.878;8.334;2023-02-18T09:40:54;100837.38;;;13.37;77.51
30598;BME280;17365;48.878;8.334;2023-02-18T09:43:37;100833.94;;;13.53;76.64
30598;BME280;17365;48.878;8.334;2023-02-18T09:46:14;100830.44;;;13.44;76.88
30598;BME280;17365;48.878;8.334;2023-02-18T09:48:43;100844.34;;;13.55;76.86
30598;BME280;17365;48.878;8.334;2023-02-18T09:51:12;100836.53;;;13.53;76.57
30598;BME280;17365;48.878;8.334;2023-02-18T09:53:41;100840.03;;;13.64;76.05
30598;BME280;17365;48.878;8.334;2023-02-18T09:56:11;100836.53;;;13.58;76.59
30598;BME280;17365;48.878;8.334;2023-02-18T09:58:38;100816.56;;;13.51;76.82
30598;BME280;17365;48.878;8.334;2023-02-18T10:01:11;100813.06;;;13.52;77.36
30598;BME280;17365;48.878;8.334;2023-02-18T10:03:40;100811.31;;;13.58;76.69
30598;BME280;17365;48.878;8.334;2023-02-18T10:06:24;100815.69;;;13.62;77.19
30598;BME280;17365;48.878;8.334;2023-02-18T10:08:52;100819.16;;;13.60;77.12
30598;BME280;17365;48.878;8.334;2023-02-18T10:11:28;100822.66;;;13.73;76.81
30598;BME280;17365;48.878;8.334;2023-02-18T10:13:55;100828.72;;;13.61;77.26
30598;BME280;17365;48.878;8.334;2023-02-18T10:16:23;100823.50;;;13.64;77.11
30598;BME280;17365;48.878;8.334;2023-02-18T10:19:00;100821.78;;;13.72;76.86
30598;BME280;17365;48.878;8.334;2023-02-18T10:21:32;100823.50;;;13.58;77.59
30598;BME280;17365;48.878;8.334;2023-02-18T10:24:06;100833.94;;;13.49;77.73
30598;BME280;17365;48.878;8.334;2023-02-18T10:26:36;100858.22;;;13.45;78.49
30598;BME280;17365;48.878;8.334;2023-02-18T10:29:04;100853.03;;;13.49;78.81
30598;BME280;17365;48.878;8.334;2023-02-18T10:31:36;100853.03;;;13.42;78.61
30598;BME280;17365;48.878;8.334;2023-02-18T10:34:06;100867.81;;;13.58;78.32
30598;BME280;17365;48.878;8.334;2023-02-18T10:36:52;100850.44;;;13.54;78.11
30598;BME280;17365;48.878;8.334;2023-02-18T10:39:53;100863.47;;;13.69;77.36
30598;BME280;17365;48.878;8.334;2023-02-18T10:42:31;100863.47;;;13.69;76.97
30598;BME280;17365;48.878;8.334;2023-02-18T10:48:09;100858.28;;;13.78;77.19
30598;BME280;17365;48.878;8.334;2023-02-18T10:50:40;100848.72;;;13.79;77.52
30598;BME280;17365;48.878;8.334;2023-02-18T10:53:28;100844.34;;;13.67;77.75
30598;BME280;17365;48.878;8.334;2023-02-18T10:55:55;100835.66;;;13.56;78.07
30598;BME280;17365;48.878;8.334;2023-02-18T10:58:41;100830.44;;;13.57;77.68
30598;BME280;17365;48.878;8.334;2023-02-18T11:01:13;100834.81;;;13.66;77.27
30598;BME280;17365;48.878;8.334;2023-02-18T11:03:43;100824.38;;;13.67;76.94
30598;BME280;17365;48.878;8.334;2023-02-18T11:06:33;100820.03;;;13.79;75.77
30598;BME280;17365;48.878;8.334;2023-02-18T11:09:02;100839.16;;;13.88;75.14
30598;BME280;17365;48.878;8.334;2023-02-18T11:11:31;100823.50;;;14.10;74.66
30598;BME280;17365;48.878;8.334;2023-02-18T11:14:00;100809.56;;;14.18;73.87
30598;BME280;17365;48.878;8.334;2023-02-18T11:16:40;100809.56;;;14.12;73.97
30598;BME280;17365;48.878;8.334;2023-02-18T11:19:33;100809.59;;;13.85;74.26
30598;BME280;17365;48.878;8.334;2023-02-18T11:22:14;100808.72;;;13.96;73.93
30598;BME280;17365;48.878;8.334;2023-02-18T11:24:42;100817.34;;;14.35;72.90
30598;BME280;17365;48.878;8.334;2023-02-18T11:27:29;100803.41;;;14.44;71.82
30598;BME280;17365;48.878;8.334;2023-02-18T11:30:05;100812.16;;;14.29;72.19
30598;BME280;17365;48.878;8.334;2023-02-18T11:32:33;100809.53;;;14.41;71.55
30598;BME280;17365;48.878;8.334;2023-02-18T11:35:01;100801.69;;;14.41;71.12
30598;BME280;17365;48.878;8.334;2023-02-18T11:37:26;100801.66;;;14.63;71.04
30598;BME280;17365;48.878;8.334;2023-02-18T11:39:53;100810.38;;;14.54;70.61
30598;BME280;17365;48.878;8.334;2023-02-18T11:42:22;100806.03;;;14.53;70.82
30598;BME280;17365;48.878;8.334;2023-02-18T11:44:54;100799.09;;;14.44;70.77
30598;BME280;17365;48.878;8.334;2023-02-18T11:47:31;100812.13;;;14.43;70.99
30598;BME280;17365;48.878;8.334;2023-02-18T11:50:16;100819.09;;;14.41;71.01
30598;BME280;17365;48.878;8.334;2023-02-18T11:52:46;100819.09;;;14.51;70.72
30598;BME280;17365;48.878;8.334;2023-02-18T11:55:27;100813.88;;;14.41;70.78
30598;BME280;17365;48.878;8.334;2023-02-18T11:57:58;100820.88;;;14.30;70.81
30598;BME280;17365;48.878;8.334;2023-02-18T12:00:45;100805.13;;;14.59;70.44
30598;BME280;17365;48.878;8.334;2023-02-18T12:06:13;100809.53;;;14.44;69.87
30598;BME280;17365;48.878;8.334;2023-02-18T12:08:48;100805.16;;;14.48;69.80
30598;BME280;17365;48.878;8.334;2023-02-18T12:11:25;100801.69;;;14.40;70.25
30598;BME280;17365;48.878;8.334;2023-02-18T12:13:56;100797.31;;;14.49;69.96
30598;BME280;17365;48.878;8.334;2023-02-18T12:16:24;100805.19;;;14.39;70.03
30598;BME280;17365;48.878;8.334;2023-02-18T12:21:45;100799.09;;;14.41;69.63
30598;BME280;17365;48.878;8.334;2023-02-18T12:27:19;100785.16;;;14.36;70.21
30598;BME280;17365;48.878;8.334;2023-02-18T12:29:51;100781.72;;;14.20;70.58
30598;BME280;17365;48.878;8.334;2023-02-18T12:32:40;100788.63;;;14.35;69.98
30598;BME280;17365;48.878;8.334;2023-02-18T12:38:15;100792.16;;;14.28;70.53
30598;BME280;17365;48.878;8.334;2023-02-18T12:40:48;100773.84;;;14.43;70.01
30598;BME280;17365;48.878;8.334;2023-02-18T12:43:45;100774.72;;;14.45;69.61
30598;BME280;17365;48.878;8.334;2023-02-18T12:54:50;100763.44;;;14.30;68.42
30598;BME280;17365;48.878;8.334;2023-02-18T13:00:20;100762.59;;;14.27;67.81
30598;BME280;17365;48.878;8.334;2023-02-18T13:02:59;100764.25;;;14.38;68.07
30598;BME280;17365;48.878;8.334;2023-02-18T13:11:18;100779.06;;;14.43;68.42
30598;BME280;17365;48.878;8.334;2023-02-18T13:14:21;100784.31;;;14.45;68.76
30598;BME280;17365;48.878;8.334;2023-02-18T13:16:51;100771.28;;;14.28;69.38
30598;BME280;17365;48.878;8.334;2023-02-18T13:19:44;100766.06;;;14.20;69.87
30598;BME280;17365;48.878;8.334;2023-02-18T13:22:11;100775.56;;;14.38;69.54
30598;BME280;17365;48.878;8.334;2023-02-18T13:24:42;100769.56;;;14.21;69.40
30598;BME280;17365;48.878;8.334;2023-02-18T13:40:29;100780.72;;;14.67;69.71
30598;BME280;17365;48.878;8.334;2023-02-18T13:43:31;100765.19;;;14.21;69.98
30598;BME280;17365;48.878;8.334;2023-02-18T13:46:14;100772.13;;;14.32;70.52
30598;BME280;17365;48.878;8.334;2023-02-18T13:51:39;100761.66;;;14.42;69.77
30598;BME280;17365;48.878;8.334;2023-02-18T13:56:41;100763.31;;;14.72;68.17
30598;BME280;17365;48.878;8.334;2023-02-18T13:59:17;100760.81;;;14.36;69.12
30598;BME280;17365;48.878;8.334;2023-02-18T14:01:46;100762.56;;;14.44;68.37
30598;BME280;17365;48.878;8.334;2023-02-18T14:09:51;100751.22;;;14.38;64.14
30598;BME280;17365;48.878;8.334;2023-02-18T14:12:42;100746.84;;;14.56;62.79
30598;BME280;17365;48.878;8.334;2023-02-18T14:17:42;100757.28;;;14.63;63.43
30598;BME280;17365;48.878;8.334;2023-02-18T14:22:45;100741.63;;;14.56;63.33
30598;BME280;17365;48.878;8.334;2023-02-18T14:27:38;100736.25;;;14.82;63.22
30598;BME280;17365;48.878;8.334;2023-02-18T14:30:34;100727.50;;;14.93;61.71
30598;BME280;17365;48.878;8.334;2023-02-18T14:33:02;100736.41;;;14.53;62.45
30598;BME280;17365;48.878;8.334;2023-02-18T14:40:37;100734.66;;;14.57;62.82
30598;BME280;17365;48.878;8.334;2023-02-18T14:49:06;100747.81;;;14.11;63.65
30598;BME280;17365;48.878;8.334;2023-02-18T14:51:39;100746.09;;;14.03;63.87
30598;BME280;17365;48.878;8.334;2023-02-18T14:54:12;100742.63;;;14.16;63.78